CheckWX is a tool to help pilots better visualize weather data.  It is not intended as a substitute for an official pre-flight weather briefing.

16:05:25 UTC

KLOT METAR
Lewis University Airport
Chicago/Romeoville, Illinois, USA
Current

30 mins ago

KLOT 071535Z AUTO 19009KT 10SM OVC100 M01/M03 A3039 RMK AO2 T10081029
Observed
Dec-7 @ 15:35 UTC
Wind
  • 190° at 9 KTS
Visibility
10 SM
Flight Rules
VFR
Cloud Levels
  • Overcast at 10,000' AGL
Temperature
-1°C / 30°F
Dewpoint
-3°C / 27°F
Humidity
86%
Altimeter
30.39" Hg
Pressure
1029.12 hPa
Previous

50 mins ago

KLOT 071515Z AUTO 19009KT 10SM OVC100 M01/M03 A3038 RMK AO2 T10111029
Observed
Dec-7 @ 15:15 UTC
Wind
  • 190° at 9 KTS
Visibility
10 SM
Flight Rules
VFR
Cloud Levels
  • Overcast at 10,000' AGL
Temperature
-1°C / 30°F
Dewpoint
-3°C / 27°F
Humidity
86%
Altimeter
30.38" Hg
Pressure
1028.82 hPa
Previous

1 hour ago

KLOT 071455Z AUTO 18007KT 10SM OVC100 M01/M03 A3039 RMK AO2 T10131031
Observed
Dec-7 @ 14:55 UTC
Wind
  • 180° at 7 KTS
Visibility
10 SM
Flight Rules
VFR
Cloud Levels
  • Overcast at 10,000' AGL
Temperature
-1°C / 30°F
Dewpoint
-3°C / 27°F
Humidity
86%
Altimeter
30.39" Hg
Pressure
1029.12 hPa